sensor_id;sensor_type;location;lat;lon;timestamp;P1;durP1;ratioP1;P2;durP2;ratioP2
56893;SDS011;43392;50.078;13.704;2024-01-07T00:00:30;29.27;;;14.57;;
56893;SDS011;43392;50.078;13.704;2024-01-07T00:02:56;27.70;;;14.20;;
56893;SDS011;43392;50.078;13.704;2024-01-07T00:05:24;29.13;;;15.05;;
56893;SDS011;43392;50.078;13.704;2024-01-07T00:07:51;26.77;;;13.50;;
56893;SDS011;43392;50.078;13.704;2024-01-07T00:10:18;28.40;;;14.60;;
56893;SDS011;43392;50.078;13.704;2024-01-07T00:12:44;31.92;;;15.13;;
56893;SDS011;43392;50.078;13.704;2024-01-07T00:15:11;27.80;;;13.73;;
56893;SDS011;43392;50.078;13.704;2024-01-07T00:17:37;28.65;;;13.73;;
56893;SDS011;43392;50.078;13.704;2024-01-07T00:20:05;27.83;;;14.90;;
56893;SDS011;43392;50.078;13.704;2024-01-07T00:22:34;25.15;;;13.48;;
56893;SDS011;43392;50.078;13.704;2024-01-07T00:25:01;29.52;;;14.40;;
56893;SDS011;43392;50.078;13.704;2024-01-07T00:27:28;27.60;;;13.80;;
56893;SDS011;43392;50.078;13.704;2024-01-07T00:29:54;24.92;;;13.27;;
56893;SDS011;43392;50.078;13.704;2024-01-07T00:32:21;25.85;;;13.13;;
56893;SDS011;43392;50.078;13.704;2024-01-07T00:34:48;26.25;;;12.73;;
56893;SDS011;43392;50.078;13.704;2024-01-07T00:37:15;25.58;;;13.25;;
56893;SDS011;43392;50.078;13.704;2024-01-07T00:39:42;24.33;;;12.32;;
56893;SDS011;43392;50.078;13.704;2024-01-07T00:42:10;24.02;;;11.95;;
56893;SDS011;43392;50.078;13.704;2024-01-07T00:44:37;24.15;;;12.55;;
56893;SDS011;43392;50.078;13.704;2024-01-07T00:47:04;24.50;;;12.90;;
56893;SDS011;43392;50.078;13.704;2024-01-07T00:49:30;24.95;;;13.38;;
56893;SDS011;43392;50.078;13.704;2024-01-07T00:51:57;30.60;;;14.32;;
56893;SDS011;43392;50.078;13.704;2024-01-07T00:54:24;27.33;;;13.75;;
56893;SDS011;43392;50.078;13.704;2024-01-07T00:56:52;25.38;;;13.43;;
56893;SDS011;43392;50.078;13.704;2024-01-07T00:59:18;26.85;;;14.35;;
56893;SDS011;43392;50.078;13.704;2024-01-07T01:01:45;24.88;;;12.77;;
56893;SDS011;43392;50.078;13.704;2024-01-07T01:04:11;28.92;;;14.07;;
56893;SDS011;43392;50.078;13.704;2024-01-07T01:06:38;28.58;;;13.32;;
56893;SDS011;43392;50.078;13.704;2024-01-07T01:09:05;25.25;;;13.13;;
56893;SDS011;43392;50.078;13.704;2024-01-07T01:11:31;24.67;;;13.02;;
56893;SDS011;43392;50.078;13.704;2024-01-07T01:13:59;26.67;;;13.98;;
56893;SDS011;43392;50.078;13.704;2024-01-07T01:16:26;26.35;;;13.23;;
56893;SDS011;43392;50.078;13.704;2024-01-07T01:18:52;24.83;;;12.68;;
56893;SDS011;43392;50.078;13.704;2024-01-07T01:21:19;26.77;;;13.65;;
56893;SDS011;43392;50.078;13.704;2024-01-07T01:23:46;26.27;;;13.48;;
56893;SDS011;43392;50.078;13.704;2024-01-07T01:26:13;28.73;;;13.68;;
56893;SDS011;43392;50.078;13.704;2024-01-07T01:28:39;27.40;;;13.95;;
56893;SDS011;43392;50.078;13.704;2024-01-07T01:31:07;26.73;;;12.93;;
56893;SDS011;43392;50.078;13.704;2024-01-07T01:33:34;23.95;;;12.98;;
56893;SDS011;43392;50.078;13.704;2024-01-07T01:36:03;24.92;;;13.52;;
56893;SDS011;43392;50.078;13.704;2024-01-07T01:38:30;25.45;;;11.88;;
56893;SDS011;43392;50.078;13.704;2024-01-07T01:40:57;23.48;;;12.10;;
56893;SDS011;43392;50.078;13.704;2024-01-07T01:43:24;26.00;;;12.88;;
56893;SDS011;43392;50.078;13.704;2024-01-07T01:45:50;22.55;;;12.23;;
56893;SDS011;43392;50.078;13.704;2024-01-07T01:48:19;22.23;;;12.70;;
56893;SDS011;43392;50.078;13.704;2024-01-07T01:50:46;24.52;;;12.80;;
56893;SDS011;43392;50.078;13.704;2024-01-07T01:53:13;26.33;;;14.23;;
56893;SDS011;43392;50.078;13.704;2024-01-07T01:55:40;27.30;;;13.55;;
56893;SDS011;43392;50.078;13.704;2024-01-07T01:58:07;21.30;;;12.07;;
56893;SDS011;43392;50.078;13.704;2024-01-07T02:00:35;23.13;;;12.57;;
56893;SDS011;43392;50.078;13.704;2024-01-07T02:03:02;23.67;;;12.07;;
56893;SDS011;43392;50.078;13.704;2024-01-07T02:05:30;22.80;;;11.65;;
56893;SDS011;43392;50.078;13.704;2024-01-07T02:07:56;19.80;;;11.23;;
56893;SDS011;43392;50.078;13.704;2024-01-07T02:10:24;23.55;;;12.77;;
56893;SDS011;43392;50.078;13.704;2024-01-07T02:12:50;25.52;;;12.07;;
56893;SDS011;43392;50.078;13.704;2024-01-07T02:15:17;22.42;;;12.05;;
56893;SDS011;43392;50.078;13.704;2024-01-07T02:17:45;21.80;;;11.70;;
56893;SDS011;43392;50.078;13.704;2024-01-07T02:20:11;25.50;;;12.32;;
56893;SDS011;43392;50.078;13.704;2024-01-07T02:22:39;21.75;;;12.38;;
56893;SDS011;43392;50.078;13.704;2024-01-07T02:25:07;24.20;;;12.60;;
56893;SDS011;43392;50.078;13.704;2024-01-07T02:27:34;21.48;;;11.63;;
56893;SDS011;43392;50.078;13.704;2024-01-07T02:30:01;24.13;;;12.43;;
56893;SDS011;43392;50.078;13.704;2024-01-07T02:32:28;25.08;;;12.10;;
56893;SDS011;43392;50.078;13.704;2024-01-07T02:34:57;24.90;;;11.88;;
56893;SDS011;43392;50.078;13.704;2024-01-07T02:37:24;22.65;;;12.10;;
56893;SDS011;43392;50.078;13.704;2024-01-07T02:39:50;21.63;;;10.95;;
56893;SDS011;43392;50.078;13.704;2024-01-07T02:42:18;21.25;;;11.60;;
56893;SDS011;43392;50.078;13.704;2024-01-07T02:44:45;23.20;;;10.90;;
56893;SDS011;43392;50.078;13.704;2024-01-07T02:47:11;20.55;;;10.98;;
56893;SDS011;43392;50.078;13.704;2024-01-07T02:49:38;20.30;;;10.07;;
56893;SDS011;43392;50.078;13.704;2024-01-07T02:52:05;21.13;;;11.52;;
56893;SDS011;43392;50.078;13.704;2024-01-07T02:54:31;22.20;;;11.60;;
56893;SDS011;43392;50.078;13.704;2024-01-07T02:56:58;21.38;;;11.15;;
56893;SDS011;43392;50.078;13.704;2024-01-07T02:59:26;19.23;;;10.80;;
56893;SDS011;43392;50.078;13.704;2024-01-07T03:01:52;21.67;;;10.75;;
56893;SDS011;43392;50.078;13.704;2024-01-07T03:04:19;20.30;;;11.10;;
56893;SDS011;43392;50.078;13.704;2024-01-07T03:06:46;21.02;;;11.25;;
56893;SDS011;43392;50.078;13.704;2024-01-07T03:09:12;23.02;;;12.13;;
56893;SDS011;43392;50.078;13.704;2024-01-07T03:11:39;21.73;;;11.60;;
56893;SDS011;43392;50.078;13.704;2024-01-07T03:14:06;19.80;;;9.82;;
56893;SDS011;43392;50.078;13.704;2024-01-07T03:16:35;17.83;;;10.02;;
56893;SDS011;43392;50.078;13.704;2024-01-07T03:19:01;21.35;;;11.20;;
56893;SDS011;43392;50.078;13.704;2024-01-07T03:21:29;19.73;;;10.45;;
56893;SDS011;43392;50.078;13.704;2024-01-07T03:23:57;21.38;;;11.02;;
56893;SDS011;43392;50.078;13.704;2024-01-07T03:26:24;22.83;;;11.15;;
56893;SDS011;43392;50.078;13.704;2024-01-07T03:28:51;17.88;;;10.57;;
56893;SDS011;43392;50.078;13.704;2024-01-07T03:31:18;18.92;;;10.43;;
56893;SDS011;43392;50.078;13.704;2024-01-07T03:33:49;22.08;;;11.25;;
56893;SDS011;43392;50.078;13.704;2024-01-07T03:36:16;20.48;;;10.82;;
56893;SDS011;43392;50.078;13.704;2024-01-07T03:38:42;22.98;;;11.68;;
56893;SDS011;43392;50.078;13.704;2024-01-07T03:41:09;21.67;;;11.43;;
56893;SDS011;43392;50.078;13.704;2024-01-07T03:43:42;22.38;;;12.13;;
56893;SDS011;43392;50.078;13.704;2024-01-07T03:46:09;21.10;;;11.98;;
56893;SDS011;43392;50.078;13.704;2024-01-07T03:48:35;23.05;;;12.25;;
56893;SDS011;43392;50.078;13.704;2024-01-07T03:51:03;20.88;;;11.63;;
56893;SDS011;43392;50.078;13.704;2024-01-07T03:53:30;26.17;;;12.77;;
56893;SDS011;43392;50.078;13.704;2024-01-07T03:55:57;22.77;;;13.55;;
56893;SDS011;43392;50.078;13.704;2024-01-07T03:58:23;23.73;;;13.07;;
56893;SDS011;43392;50.078;13.704;2024-01-07T04:00:50;23.08;;;12.00;;
56893;SDS011;43392;50.078;13.704;2024-01-07T04:03:17;23.77;;;12.65;;
56893;SDS011;43392;50.078;13.704;2024-01-07T04:05:44;22.05;;;12.07;;
56893;SDS011;43392;50.078;13.704;2024-01-07T04:08:12;20.77;;;12.57;;
56893;SDS011;43392;50.078;13.704;2024-01-07T04:10:40;25.75;;;13.38;;
56893;SDS011;43392;50.078;13.704;2024-01-07T04:13:07;23.95;;;13.23;;
56893;SDS011;43392;50.078;13.704;2024-01-07T04:15:34;22.73;;;12.35;;
56893;SDS011;43392;50.078;13.704;2024-01-07T04:18:01;23.33;;;12.95;;
56893;SDS011;43392;50.078;13.704;2024-01-07T04:20:28;24.60;;;12.80;;
56893;SDS011;43392;50.078;13.704;2024-01-07T04:22:55;23.30;;;11.75;;
56893;SDS011;43392;50.078;13.704;2024-01-07T04:25:23;23.98;;;12.98;;
56893;SDS011;43392;50.078;13.704;2024-01-07T04:27:50;26.77;;;12.48;;
56893;SDS011;43392;50.078;13.704;2024-01-07T04:30:16;26.55;;;13.13;;
56893;SDS011;43392;50.078;13.704;2024-01-07T04:32:43;25.75;;;12.25;;
56893;SDS011;43392;50.078;13.704;2024-01-07T04:35:10;24.27;;;12.13;;
56893;SDS011;43392;50.078;13.704;2024-01-07T04:37:37;24.55;;;12.38;;
56893;SDS011;43392;50.078;13.704;2024-01-07T04:40:04;25.55;;;13.60;;
56893;SDS011;43392;50.078;13.704;2024-01-07T04:42:33;26.85;;;12.38;;
56893;SDS011;43392;50.078;13.704;2024-01-07T04:45:00;25.95;;;12.48;;
56893;SDS011;43392;50.078;13.704;2024-01-07T04:47:26;24.90;;;13.00;;
56893;SDS011;43392;50.078;13.704;2024-01-07T04:49:54;25.27;;;13.05;;
56893;SDS011;43392;50.078;13.704;2024-01-07T04:52:21;23.42;;;12.23;;
56893;SDS011;43392;50.078;13.704;2024-01-07T04:54:48;25.98;;;13.68;;
56893;SDS011;43392;50.078;13.704;2024-01-07T04:57:14;25.55;;;12.50;;
56893;SDS011;43392;50.078;13.704;2024-01-07T04:59:42;28.63;;;13.07;;
56893;SDS011;43392;50.078;13.704;2024-01-07T05:02:10;25.88;;;12.93;;
56893;SDS011;43392;50.078;13.704;2024-01-07T05:04:36;26.60;;;13.60;;
56893;SDS011;43392;50.078;13.704;2024-01-07T05:07:03;25.13;;;13.63;;
56893;SDS011;43392;50.078;13.704;2024-01-07T05:09:31;28.52;;;12.98;;
56893;SDS011;43392;50.078;13.704;2024-01-07T05:11:58;21.90;;;12.13;;
56893;SDS011;43392;50.078;13.704;2024-01-07T05:14:24;23.52;;;12.95;;
56893;SDS011;43392;50.078;13.704;2024-01-07T05:16:54;23.90;;;12.35;;
56893;SDS011;43392;50.078;13.704;2024-01-07T05:19:20;25.60;;;13.48;;
56893;SDS011;43392;50.078;13.704;2024-01-07T05:21:47;26.83;;;13.18;;
56893;SDS011;43392;50.078;13.704;2024-01-07T05:24:14;27.77;;;12.27;;
56893;SDS011;43392;50.078;13.704;2024-01-07T05:26:41;25.50;;;12.25;;
56893;SDS011;43392;50.078;13.704;2024-01-07T05:29:09;23.75;;;12.57;;
56893;SDS011;43392;50.078;13.704;2024-01-07T05:31:36;25.95;;;12.88;;
56893;SDS011;43392;50.078;13.704;2024-01-07T05:34:04;23.13;;;13.32;;
56893;SDS011;43392;50.078;13.704;2024-01-07T05:36:31;25.33;;;13.27;;
56893;SDS011;43392;50.078;13.704;2024-01-07T05:38:57;23.55;;;12.90;;
56893;SDS011;43392;50.078;13.704;2024-01-07T05:41:24;23.02;;;13.13;;
56893;SDS011;43392;50.078;13.704;2024-01-07T05:43:51;27.83;;;13.70;;
56893;SDS011;43392;50.078;13.704;2024-01-07T05:46:17;26.65;;;12.88;;
56893;SDS011;43392;50.078;13.704;2024-01-07T05:48:44;23.00;;;12.60;;
56893;SDS011;43392;50.078;13.704;2024-01-07T05:51:14;25.73;;;12.93;;
56893;SDS011;43392;50.078;13.704;2024-01-07T05:53:41;20.00;;;11.40;;
56893;SDS011;43392;50.078;13.704;2024-01-07T05:56:08;22.67;;;11.75;;
56893;SDS011;43392;50.078;13.704;2024-01-07T05:58:35;23.73;;;11.82;;
56893;SDS011;43392;50.078;13.704;2024-01-07T06:01:01;24.02;;;12.45;;
56893;SDS011;43392;50.078;13.704;2024-01-07T06:03:28;23.00;;;11.65;;
56893;SDS011;43392;50.078;13.704;2024-01-07T06:05:55;24.05;;;11.18;;
56893;SDS011;43392;50.078;13.704;2024-01-07T06:08:23;22.98;;;12.52;;
56893;SDS011;43392;50.078;13.704;2024-01-07T06:10:49;23.50;;;12.25;;
56893;SDS011;43392;50.078;13.704;2024-01-07T06:13:16;24.38;;;12.55;;
56893;SDS011;43392;50.078;13.704;2024-01-07T06:15:43;23.70;;;12.95;;
56893;SDS011;43392;50.078;13.704;2024-01-07T06:18:10;23.88;;;12.10;;
56893;SDS011;43392;50.078;13.704;2024-01-07T06:20:36;23.02;;;11.85;;
56893;SDS011;43392;50.078;13.704;2024-01-07T06:23:03;25.42;;;12.43;;
56893;SDS011;43392;50.078;13.704;2024-01-07T06:25:32;22.48;;;12.48;;
56893;SDS011;43392;50.078;13.704;2024-01-07T06:27:59;22.38;;;11.80;;
56893;SDS011;43392;50.078;13.704;2024-01-07T06:30:25;22.15;;;12.98;;
56893;SDS011;43392;50.078;13.704;2024-01-07T06:32:52;23.00;;;11.80;;
56893;SDS011;43392;50.078;13.704;2024-01-07T06:35:19;22.58;;;12.23;;
56893;SDS011;43392;50.078;13.704;2024-01-07T06:37:45;22.17;;;12.20;;
56893;SDS011;43392;50.078;13.704;2024-01-07T06:40:12;22.95;;;11.65;;
56893;SDS011;43392;50.078;13.704;2024-01-07T06:42:40;21.48;;;11.60;;
56893;SDS011;43392;50.078;13.704;2024-01-07T06:45:09;21.17;;;11.57;;
56893;SDS011;43392;50.078;13.704;2024-01-07T06:47:35;25.38;;;12.15;;
56893;SDS011;43392;50.078;13.704;2024-01-07T06:50:02;22.77;;;12.60;;
56893;SDS011;43392;50.078;13.704;2024-01-07T06:52:29;26.73;;;13.32;;
56893;SDS011;43392;50.078;13.704;2024-01-07T06:54:56;26.92;;;12.77;;
56893;SDS011;43392;50.078;13.704;2024-01-07T06:57:23;25.20;;;12.85;;
56893;SDS011;43392;50.078;13.704;2024-01-07T06:59:51;27.30;;;12.27;;
56893;SDS011;43392;50.078;13.704;2024-01-07T07:02:17;23.48;;;12.07;;
56893;SDS011;43392;50.078;13.704;2024-01-07T07:04:46;23.42;;;12.18;;
56893;SDS011;43392;50.078;13.704;2024-01-07T07:07:12;29.63;;;13.50;;
56893;SDS011;43392;50.078;13.704;2024-01-07T07:09:39;21.27;;;11.63;;
56893;SDS011;43392;50.078;13.704;2024-01-07T07:12:06;23.92;;;12.00;;
56893;SDS011;43392;50.078;13.704;2024-01-07T07:14:33;22.67;;;11.50;;
56893;SDS011;43392;50.078;13.704;2024-01-07T07:17:01;21.52;;;11.77;;
56893;SDS011;43392;50.078;13.704;2024-01-07T07:19:28;26.48;;;12.52;;
56893;SDS011;43392;50.078;13.704;2024-01-07T07:21:56;20.92;;;11.07;;
56893;SDS011;43392;50.078;13.704;2024-01-07T07:24:22;21.00;;;10.75;;
56893;SDS011;43392;50.078;13.704;2024-01-07T07:26:49;20.02;;;10.57;;
56893;SDS011;43392;50.078;13.704;2024-01-07T07:29:16;23.67;;;12.20;;
56893;SDS011;43392;50.078;13.704;2024-01-07T07:31:43;20.35;;;10.93;;
56893;SDS011;43392;50.078;13.704;2024-01-07T07:34:11;19.00;;;10.13;;
56893;SDS011;43392;50.078;13.704;2024-01-07T07:36:38;24.42;;;11.25;;
56893;SDS011;43392;50.078;13.704;2024-01-07T07:39:06;20.17;;;11.05;;
56893;SDS011;43392;50.078;13.704;2024-01-07T07:41:34;20.85;;;11.13;;
56893;SDS011;43392;50.078;13.704;2024-01-07T07:44:00;24.95;;;11.85;;
56893;SDS011;43392;50.078;13.704;2024-01-07T07:46:27;22.38;;;12.05;;
56893;SDS011;43392;50.078;13.704;2024-01-07T07:48:54;20.38;;;11.23;;
56893;SDS011;43392;50.078;13.704;2024-01-07T07:51:22;22.80;;;10.93;;
56893;SDS011;43392;50.078;13.704;2024-01-07T07:53:48;21.40;;;11.15;;
56893;SDS011;43392;50.078;13.704;2024-01-07T07:56:15;22.70;;;11.57;;
56893;SDS011;43392;50.078;13.704;2024-01-07T07:58:41;22.60;;;10.55;;
56893;SDS011;43392;50.078;13.704;2024-01-07T08:01:08;19.08;;;10.88;;
56893;SDS011;43392;50.078;13.704;2024-01-07T08:03:35;19.85;;;9.57;;
56893;SDS011;43392;50.078;13.704;2024-01-07T08:06:01;20.88;;;10.18;;
56893;SDS011;43392;50.078;13.704;2024-01-07T08:08:30;20.95;;;10.32;;
56893;SDS011;43392;50.078;13.704;2024-01-07T08:10:57;22.13;;;10.95;;
56893;SDS011;43392;50.078;13.704;2024-01-07T08:13:24;20.50;;;10.40;;
56893;SDS011;43392;50.078;13.704;2024-01-07T08:15:50;20.98;;;10.65;;
56893;SDS011;43392;50.078;13.704;2024-01-07T08:18:17;19.67;;;10.50;;
56893;SDS011;43392;50.078;13.704;2024-01-07T08:20:43;19.92;;;10.48;;
56893;SDS011;43392;50.078;13.704;2024-01-07T08:23:10;16.58;;;9.52;;
56893;SDS011;43392;50.078;13.704;2024-01-07T08:25:38;19.15;;;10.20;;
56893;SDS011;43392;50.078;13.704;2024-01-07T08:28:05;16.95;;;9.45;;
56893;SDS011;43392;50.078;13.704;2024-01-07T08:30:32;17.55;;;9.30;;
56893;SDS011;43392;50.078;13.704;2024-01-07T08:32:59;16.10;;;9.35;;
56893;SDS011;43392;50.078;13.704;2024-01-07T08:35:25;19.00;;;9.77;;
56893;SDS011;43392;50.078;13.704;2024-01-07T08:37:52;19.85;;;9.43;;
56893;SDS011;43392;50.078;13.704;2024-01-07T08:40:19;18.85;;;9.55;;
56893;SDS011;43392;50.078;13.704;2024-01-07T08:42:47;19.77;;;9.88;;
56893;SDS011;43392;50.078;13.704;2024-01-07T08:45:13;18.17;;;9.57;;
56893;SDS011;43392;50.078;13.704;2024-01-07T08:47:40;20.15;;;10.63;;
56893;SDS011;43392;50.078;13.704;2024-01-07T08:50:07;17.92;;;9.95;;
56893;SDS011;43392;50.078;13.704;2024-01-07T08:52:34;23.58;;;10.88;;
56893;SDS011;43392;50.078;13.704;2024-01-07T08:55:01;20.95;;;10.70;;
56893;SDS011;43392;50.078;13.704;2024-01-07T08:57:30;20.73;;;10.40;;
56893;SDS011;43392;50.078;13.704;2024-01-07T08:59:58;18.38;;;9.27;;
56893;SDS011;43392;50.078;13.704;2024-01-07T09:02:25;16.92;;;9.77;;
56893;SDS011;43392;50.078;13.704;2024-01-07T09:04:52;20.05;;;10.52;;
56893;SDS011;43392;50.078;13.704;2024-01-07T09:07:18;18.58;;;10.77;;
56893;SDS011;43392;50.078;13.704;2024-01-07T09:09:45;23.27;;;11.15;;
56893;SDS011;43392;50.078;13.704;2024-01-07T09:12:11;19.40;;;10.38;;
56893;SDS011;43392;50.078;13.704;2024-01-07T09:14:38;19.92;;;10.40;;
56893;SDS011;43392;50.078;13.704;2024-01-07T09:17:06;20.73;;;10.82;;
56893;SDS011;43392;50.078;13.704;2024-01-07T09:19:33;22.55;;;11.27;;
56893;SDS011;43392;50.078;13.704;2024-01-07T09:21:59;21.42;;;10.48;;
56893;SDS011;43392;50.078;13.704;2024-01-07T09:24:27;18.27;;;10.88;;
56893;SDS011;43392;50.078;13.704;2024-01-07T09:26:54;21.33;;;10.68;;
56893;SDS011;43392;50.078;13.704;2024-01-07T09:29:22;18.30;;;10.10;;
56893;SDS011;43392;50.078;13.704;2024-01-07T09:31:48;25.95;;;10.57;;
56893;SDS011;43392;50.078;13.704;2024-01-07T09:34:16;21.23;;;10.70;;
56893;SDS011;43392;50.078;13.704;2024-01-07T09:36:43;21.02;;;10.40;;
56893;SDS011;43392;50.078;13.704;2024-01-07T09:39:09;22.67;;;10.48;;
56893;SDS011;43392;50.078;13.704;2024-01-07T09:41:36;24.88;;;11.98;;
56893;SDS011;43392;50.078;13.704;2024-01-07T09:44:04;21.90;;;10.10;;
56893;SDS011;43392;50.078;13.704;2024-01-07T09:46:32;21.42;;;11.82;;
56893;SDS011;43392;50.078;13.704;2024-01-07T09:49:03;17.83;;;9.23;;
56893;SDS011;43392;50.078;13.704;2024-01-07T09:51:31;19.95;;;10.30;;
56893;SDS011;43392;50.078;13.704;2024-01-07T09:54:02;21.43;;;10.67;;
56893;SDS011;43392;50.078;13.704;2024-01-07T09:56:32;21.67;;;11.52;;
56893;SDS011;43392;50.078;13.704;2024-01-07T09:59:04;22.60;;;11.15;;
56893;SDS011;43392;50.078;13.704;2024-01-07T10:01:32;22.20;;;11.32;;
56893;SDS011;43392;50.078;13.704;2024-01-07T10:04:00;20.13;;;10.98;;
56893;SDS011;43392;50.078;13.704;2024-01-07T10:06:27;19.42;;;11.00;;
56893;SDS011;43392;50.078;13.704;2024-01-07T10:08:55;23.38;;;11.18;;
56893;SDS011;43392;50.078;13.704;2024-01-07T10:11:21;18.88;;;10.10;;
56893;SDS011;43392;50.078;13.704;2024-01-07T10:13:48;21.73;;;9.55;;
56893;SDS011;43392;50.078;13.704;2024-01-07T10:16:16;18.73;;;9.98;;
56893;SDS011;43392;50.078;13.704;2024-01-07T10:18:43;23.13;;;10.43;;
56893;SDS011;43392;50.078;13.704;2024-01-07T10:21:09;19.17;;;9.45;;
56893;SDS011;43392;50.078;13.704;2024-01-07T10:23:36;20.60;;;10.00;;
56893;SDS011;43392;50.078;13.704;2024-01-07T10:26:04;20.92;;;9.43;;
56893;SDS011;43392;50.078;13.704;2024-01-07T10:28:31;18.90;;;8.88;;
56893;SDS011;43392;50.078;13.704;2024-01-07T10:30:57;16.03;;;8.73;;
56893;SDS011;43392;50.078;13.704;2024-01-07T10:33:24;16.55;;;8.75;;
56893;SDS011;43392;50.078;13.704;2024-01-07T10:35:51;16.42;;;8.15;;
56893;SDS011;43392;50.078;13.704;2024-01-07T10:38:22;17.77;;;8.48;;
56893;SDS011;43392;50.078;13.704;2024-01-07T10:40:49;18.40;;;9.30;;
56893;SDS011;43392;50.078;13.704;2024-01-07T10:43:19;17.45;;;8.82;;
56893;SDS011;43392;50.078;13.704;2024-01-07T10:45:47;16.27;;;8.95;;
56893;SDS011;43392;50.078;13.704;2024-01-07T10:48:15;13.60;;;8.30;;
56893;SDS011;43392;50.078;13.704;2024-01-07T10:50:44;18.70;;;9.43;;
56893;SDS011;43392;50.078;13.704;2024-01-07T10:53:14;15.18;;;8.73;;
56893;SDS011;43392;50.078;13.704;2024-01-07T10:55:48;17.53;;;8.93;;
56893;SDS011;43392;50.078;13.704;2024-01-07T10:58:22;15.05;;;8.70;;
56893;SDS011;43392;50.078;13.704;2024-01-07T11:00:50;15.73;;;8.93;;
56893;SDS011;43392;50.078;13.704;2024-01-07T11:03:18;15.93;;;9.32;;
56893;SDS011;43392;50.078;13.704;2024-01-07T11:05:52;17.58;;;8.50;;
56893;SDS011;43392;50.078;13.704;2024-01-07T11:08:25;16.27;;;7.93;;
56893;SDS011;43392;50.078;13.704;2024-01-07T11:10:59;16.00;;;7.57;;
56893;SDS011;43392;50.078;13.704;2024-01-07T11:13:34;14.23;;;7.63;;
56893;SDS011;43392;50.078;13.704;2024-01-07T11:16:03;14.18;;;7.93;;
56893;SDS011;43392;50.078;13.704;2024-01-07T11:18:30;15.70;;;7.80;;
56893;SDS011;43392;50.078;13.704;2024-01-07T11:20:59;16.33;;;8.23;;
56893;SDS011;43392;50.078;13.704;2024-01-07T11:23:28;13.88;;;7.85;;
56893;SDS011;43392;50.078;13.704;2024-01-07T11:25:56;17.25;;;8.57;;
56893;SDS011;43392;50.078;13.704;2024-01-07T11:28:43;14.45;;;7.88;;
56893;SDS011;43392;50.078;13.704;2024-01-07T11:31:15;13.82;;;7.80;;
56893;SDS011;43392;50.078;13.704;2024-01-07T11:33:43;13.25;;;7.95;;
56893;SDS011;43392;50.078;13.704;2024-01-07T11:36:11;13.25;;;6.90;;
56893;SDS011;43392;50.078;13.704;2024-01-07T11:38:41;14.73;;;7.65;;
56893;SDS011;43392;50.078;13.704;2024-01-07T11:41:08;12.57;;;7.30;;
56893;SDS011;43392;50.078;13.704;2024-01-07T11:43:37;14.77;;;7.20;;
56893;SDS011;43392;50.078;13.704;2024-01-07T11:46:05;14.88;;;7.50;;
56893;SDS011;43392;50.078;13.704;2024-01-07T11:48:31;13.27;;;7.07;;
56893;SDS011;43392;50.078;13.704;2024-01-07T11:50:58;15.75;;;7.78;;
56893;SDS011;43392;50.078;13.704;2024-01-07T11:53:25;12.80;;;6.78;;
56893;SDS011;43392;50.078;13.704;2024-01-07T11:55:51;14.95;;;6.85;;
56893;SDS011;43392;50.078;13.704;2024-01-07T11:58:18;13.50;;;7.50;;
56893;SDS011;43392;50.078;13.704;2024-01-07T12:00:45;13.63;;;7.53;;
56893;SDS011;43392;50.078;13.704;2024-01-07T12:03:13;13.00;;;7.13;;
56893;SDS011;43392;50.078;13.704;2024-01-07T12:05:40;11.30;;;6.55;;
56893;SDS011;43392;50.078;13.704;2024-01-07T12:08:07;13.93;;;7.68;;
56893;SDS011;43392;50.078;13.704;2024-01-07T12:10:33;14.85;;;6.78;;
56893;SDS011;43392;50.078;13.704;2024-01-07T12:13:00;13.00;;;6.90;;
56893;SDS011;43392;50.078;13.704;2024-01-07T12:15:28;12.27;;;6.68;;
56893;SDS011;43392;50.078;13.704;2024-01-07T12:17:56;12.90;;;6.55;;
56893;SDS011;43392;50.078;13.704;2024-01-07T12:20:24;13.35;;;6.53;;
56893;SDS011;43392;50.078;13.704;2024-01-07T12:22:52;11.90;;;6.32;;
56893;SDS011;43392;50.078;13.704;2024-01-07T12:25:21;13.45;;;6.30;;
56893;SDS011;43392;50.078;13.704;2024-01-07T12:27:49;13.20;;;6.85;;
56893;SDS011;43392;50.078;13.704;2024-01-07T12:30:18;11.23;;;6.30;;
56893;SDS011;43392;50.078;13.704;2024-01-07T12:32:46;12.77;;;5.65;;
56893;SDS011;43392;50.078;13.704;2024-01-07T12:35:12;12.07;;;6.40;;
56893;SDS011;43392;50.078;13.704;2024-01-07T12:37:41;11.40;;;6.88;;
56893;SDS011;43392;50.078;13.704;2024-01-07T12:40:09;12.65;;;6.57;;
56893;SDS011;43392;50.078;13.704;2024-01-07T12:42:37;13.15;;;7.00;;
56893;SDS011;43392;50.078;13.704;2024-01-07T12:45:06;10.93;;;5.90;;
56893;SDS011;43392;50.078;13.704;2024-01-07T12:47:34;10.40;;;6.15;;
56893;SDS011;43392;50.078;13.704;2024-01-07T12:50:01;12.25;;;6.43;;
56893;SDS011;43392;50.078;13.704;2024-01-07T12:52:27;10.82;;;5.95;;
56893;SDS011;43392;50.078;13.704;2024-01-07T12:54:55;11.60;;;5.93;;
56893;SDS011;43392;50.078;13.704;2024-01-07T12:57:23;12.02;;;6.55;;
56893;SDS011;43392;50.078;13.704;2024-01-07T12:59:49;11.32;;;6.03;;
56893;SDS011;43392;50.078;13.704;2024-01-07T13:02:16;10.77;;;6.15;;
56893;SDS011;43392;50.078;13.704;2024-01-07T13:04:42;10.65;;;5.75;;
56893;SDS011;43392;50.078;13.704;2024-01-07T13:07:09;12.00;;;6.32;;
56893;SDS011;43392;50.078;13.704;2024-01-07T13:09:36;10.40;;;6.28;;
56893;SDS011;43392;50.078;13.704;2024-01-07T13:12:04;10.25;;;6.10;;
56893;SDS011;43392;50.078;13.704;2024-01-07T13:14:31;12.73;;;5.82;;
56893;SDS011;43392;50.078;13.704;2024-01-07T13:16:57;11.73;;;6.10;;
56893;SDS011;43392;50.078;13.704;2024-01-07T13:19:24;12.43;;;6.72;;
56893;SDS011;43392;50.078;13.704;2024-01-07T13:21:52;11.40;;;6.40;;
56893;SDS011;43392;50.078;13.704;2024-01-07T13:24:20;11.63;;;6.38;;
56893;SDS011;43392;50.078;13.704;2024-01-07T13:26:47;12.10;;;6.28;;
56893;SDS011;43392;50.078;13.704;2024-01-07T13:29:15;12.25;;;7.03;;
56893;SDS011;43392;50.078;13.704;2024-01-07T13:31:41;12.55;;;6.47;;
56893;SDS011;43392;50.078;13.704;2024-01-07T13:34:08;11.43;;;6.50;;
56893;SDS011;43392;50.078;13.704;2024-01-07T13:36:35;11.52;;;6.15;;
56893;SDS011;43392;50.078;13.704;2024-01-07T13:39:01;12.95;;;6.85;;
56893;SDS011;43392;50.078;13.704;2024-01-07T13:41:28;10.70;;;5.72;;
56893;SDS011;43392;50.078;13.704;2024-01-07T13:43:57;9.77;;;5.57;;
56893;SDS011;43392;50.078;13.704;2024-01-07T13:46:25;10.00;;;5.72;;
56893;SDS011;43392;50.078;13.704;2024-01-07T13:48:51;11.50;;;6.47;;
56893;SDS011;43392;50.078;13.704;2024-01-07T13:51:18;9.77;;;5.20;;
56893;SDS011;43392;50.078;13.704;2024-01-07T13:53:45;11.95;;;5.43;;
56893;SDS011;43392;50.078;13.704;2024-01-07T13:56:11;9.20;;;4.95;;
56893;SDS011;43392;50.078;13.704;2024-01-07T13:58:38;10.93;;;5.55;;
56893;SDS011;43392;50.078;13.704;2024-01-07T14:01:05;10.47;;;5.60;;
56893;SDS011;43392;50.078;13.704;2024-01-07T14:03:33;10.35;;;5.40;;
56893;SDS011;43392;50.078;13.704;2024-01-07T14:06:00;10.60;;;5.68;;
56893;SDS011;43392;50.078;13.704;2024-01-07T14:08:28;10.65;;;5.20;;
56893;SDS011;43392;50.078;13.704;2024-01-07T14:10:54;13.55;;;5.72;;
56893;SDS011;43392;50.078;13.704;2024-01-07T14:13:21;9.43;;;5.07;;